sensor_id;sensor_type;location;lat;lon;timestamp;pressure;altitude;pressure_sealevel;temperature;humidity
48352;BME280;34163;49.314;6.752;2023-08-06T00:02:04;98680.47;;;5.80;100.00
48352;BME280;34163;49.314;6.752;2023-08-06T00:04:29;98678.69;;;5.80;100.00
48352;BME280;34163;49.314;6.752;2023-08-06T00:06:54;98669.81;;;5.83;100.00
48352;BME280;34163;49.314;6.752;2023-08-06T00:09:19;98657.09;;;5.72;100.00
48352;BME280;34163;49.314;6.752;2023-08-06T00:11:44;98658.84;;;5.73;100.00
48352;BME280;34163;49.314;6.752;2023-08-06T00:14:11;98659.81;;;5.71;100.00
48352;BME280;34163;49.314;6.752;2023-08-06T00:16:36;98663.72;;;5.60;100.00
48352;BME280;34163;49.314;6.752;2023-08-06T00:19:02;98656.16;;;5.53;100.00
48352;BME280;34163;49.314;6.752;2023-08-06T00:21:27;98658.47;;;5.60;100.00
48352;BME280;34163;49.314;6.752;2023-08-06T00:23:52;98663.63;;;5.63;100.00
48352;BME280;34163;49.314;6.752;2023-08-06T08:21:15;98807.56;;;7.66;100.00
48352;BME280;34163;49.314;6.752;2023-08-06T08:23:41;98811.09;;;7.66;100.00
48352;BME280;34163;49.314;6.752;2023-08-06T08:26:07;98813.72;;;7.47;100.00
48352;BME280;34163;49.314;6.752;2023-08-06T08:28:32;98807.94;;;7.58;100.00
48352;BME280;34163;49.314;6.752;2023-08-06T08:30:57;98819.28;;;7.60;100.00
48352;BME280;34163;49.314;6.752;2023-08-06T08:33:23;98811.91;;;7.48;100.00
48352;BME280;34163;49.314;6.752;2023-08-06T08:35:48;98826.63;;;7.72;100.00
48352;BME280;34163;49.314;6.752;2023-08-06T08:38:13;98825.28;;;7.43;100.00
48352;BME280;34163;49.314;6.752;2023-08-06T08:40:41;98835.50;;;7.51;100.00
48352;BME280;34163;49.314;6.752;2023-08-06T08:43:09;98837.84;;;7.57;100.00
48352;BME280;34163;49.314;6.752;2023-08-06T08:45:35;98849.22;;;7.38;100.00
48352;BME280;34163;49.314;6.752;2023-08-06T08:48:04;98852.47;;;7.64;100.00
48352;BME280;34163;49.314;6.752;2023-08-06T08:50:30;98857.09;;;7.59;100.00
48352;BME280;34163;49.314;6.752;2023-08-06T08:52:56;98856.38;;;7.55;100.00
48352;BME280;34163;49.314;6.752;2023-08-06T08:55:21;98863.44;;;7.55;100.00
48352;BME280;34163;49.314;6.752;2023-08-06T08:57:46;98865.78;;;7.42;100.00
48352;BME280;34163;49.314;6.752;2023-08-06T09:00:12;98874.06;;;7.53;100.00
48352;BME280;34163;49.314;6.752;2023-08-06T09:02:39;98880.72;;;7.41;100.00
48352;BME280;34163;49.314;6.752;2023-08-06T09:05:05;98878.19;;;7.59;100.00
48352;BME280;34163;49.314;6.752;2023-08-06T09:07:38;98883.56;;;7.37;100.00
48352;BME280;34163;49.314;6.752;2023-08-06T09:10:06;98887.31;;;7.52;100.00
48352;BME280;34163;49.314;6.752;2023-08-06T09:12:32;98895.22;;;7.31;100.00
48352;BME280;34163;49.314;6.752;2023-08-06T09:14:57;98896.97;;;7.51;100.00
48352;BME280;34163;49.314;6.752;2023-08-06T09:17:22;98900.03;;;7.42;100.00
48352;BME280;34163;49.314;6.752;2023-08-06T09:19:48;98916.88;;;7.58;100.00
48352;BME280;34163;49.314;6.752;2023-08-06T09:22:14;98922.81;;;7.63;100.00
48352;BME280;34163;49.314;6.752;2023-08-06T09:24:43;98912.66;;;7.94;100.00
48352;BME280;34163;49.314;6.752;2023-08-06T09:27:11;98924.53;;;7.64;100.00
48352;BME280;34163;49.314;6.752;2023-08-06T09:29:41;98928.38;;;7.76;100.00
48352;BME280;34163;49.314;6.752;2023-08-06T09:32:06;98933.25;;;7.86;100.00
48352;BME280;34163;49.314;6.752;2023-08-06T09:34:32;98941.28;;;7.82;100.00
48352;BME280;34163;49.314;6.752;2023-08-06T09:36:57;98935.47;;;8.14;100.00
48352;BME280;34163;49.314;6.752;2023-08-06T09:39:29;98946.94;;;7.94;100.00
48352;BME280;34163;49.314;6.752;2023-08-06T09:41:58;98949.66;;;8.11;100.00
48352;BME280;34163;49.314;6.752;2023-08-06T12:55:30;99105.09;;;9.14;100.00
48352;BME280;34163;49.314;6.752;2023-08-06T12:57:55;99111.97;;;9.18;100.00
48352;BME280;34163;49.314;6.752;2023-08-06T13:00:20;99116.13;;;9.24;100.00
48352;BME280;34163;49.314;6.752;2023-08-06T13:02:46;99123.25;;;9.22;100.00
48352;BME280;34163;49.314;6.752;2023-08-06T13:05:11;99120.75;;;9.55;100.00
48352;BME280;34163;49.314;6.752;2023-08-06T13:07:36;99118.53;;;9.29;100.00
48352;BME280;34163;49.314;6.752;2023-08-06T13:10:02;99114.59;;;9.18;100.00
48352;BME280;34163;49.314;6.752;2023-08-06T13:12:27;99106.69;;;9.18;100.00
48352;BME280;34163;49.314;6.752;2023-08-06T13:14:52;99123.97;;;9.25;100.00
48352;BME280;34163;49.314;6.752;2023-08-06T13:17:18;99119.88;;;9.18;100.00
48352;BME280;34163;49.314;6.752;2023-08-06T13:19:43;99121.41;;;9.24;100.00
48352;BME280;34163;49.314;6.752;2023-08-06T13:22:09;99121.41;;;9.24;100.00
48352;BME280;34163;49.314;6.752;2023-08-06T13:24:35;99111.13;;;9.18;100.00
48352;BME280;34163;49.314;6.752;2023-08-06T13:27:00;99118.59;;;9.27;100.00
48352;BME280;34163;49.314;6.752;2023-08-06T13:29:26;99114.81;;;9.14;100.00
48352;BME280;34163;49.314;6.752;2023-08-06T13:31:52;99121.63;;;9.19;100.00
48352;BME280;34163;49.314;6.752;2023-08-06T13:34:17;99122.31;;;9.23;100.00
48352;BME280;34163;49.314;6.752;2023-08-06T13:36:42;99122.09;;;9.27;100.00
48352;BME280;34163;49.314;6.752;2023-08-06T13:39:08;99132.88;;;9.42;100.00
48352;BME280;34163;49.314;6.752;2023-08-06T13:41:33;99134.06;;;9.35;100.00
48352;BME280;34163;49.314;6.752;2023-08-06T13:43:58;99136.38;;;9.23;100.00
48352;BME280;34163;49.314;6.752;2023-08-06T13:46:24;99132.47;;;9.32;100.00
48352;BME280;34163;49.314;6.752;2023-08-06T13:48:49;99139.69;;;9.29;100.00
48352;BME280;34163;49.314;6.752;2023-08-06T13:51:16;99159.94;;;9.47;100.00
48352;BME280;34163;49.314;6.752;2023-08-06T13:53:41;99152.38;;;9.93;100.00
48352;BME280;34163;49.314;6.752;2023-08-06T13:56:07;99157.31;;;9.64;100.00
48352;BME280;34163;49.314;6.752;2023-08-06T13:58:32;99156.25;;;9.69;100.00
48352;BME280;34163;49.314;6.752;2023-08-06T14:00:58;99157.06;;;9.52;100.00
48352;BME280;34163;49.314;6.752;2023-08-06T14:03:23;99168.00;;;9.44;100.00
48352;BME280;34163;49.314;6.752;2023-08-06T14:05:49;99177.25;;;9.54;100.00
48352;BME280;34163;49.314;6.752;2023-08-06T14:08:14;99182.41;;;9.38;100.00
48352;BME280;34163;49.314;6.752;2023-08-06T14:10:40;99179.69;;;9.40;100.00
48352;BME280;34163;49.314;6.752;2023-08-06T14:13:05;99181.94;;;9.48;100.00
48352;BME280;34163;49.314;6.752;2023-08-06T14:15:30;99194.88;;;9.35;100.00
48352;BME280;34163;49.314;6.752;2023-08-06T14:17:56;99185.13;;;9.37;100.00
48352;BME280;34163;49.314;6.752;2023-08-06T14:20:21;99184.78;;;9.25;100.00
48352;BME280;34163;49.314;6.752;2023-08-06T14:22:46;99199.53;;;9.30;100.00
48352;BME280;34163;49.314;6.752;2023-08-06T14:25:12;99192.56;;;9.29;100.00
48352;BME280;34163;49.314;6.752;2023-08-06T14:27:37;99198.00;;;9.25;100.00
48352;BME280;34163;49.314;6.752;2023-08-06T14:30:05;99206.28;;;9.37;100.00
48352;BME280;34163;49.314;6.752;2023-08-06T14:32:30;99214.41;;;9.32;100.00
48352;BME280;34163;49.314;6.752;2023-08-06T14:34:56;99230.50;;;9.27;100.00
48352;BME280;34163;49.314;6.752;2023-08-06T14:37:21;99222.34;;;9.13;100.00
48352;BME280;34163;49.314;6.752;2023-08-06T14:39:46;99236.69;;;9.26;100.00
48352;BME280;34163;49.314;6.752;2023-08-06T14:42:12;99250.97;;;9.60;100.00
48352;BME280;34163;49.314;6.752;2023-08-06T14:44:37;99250.41;;;9.35;100.00
48352;BME280;34163;49.314;6.752;2023-08-06T14:47:02;99246.13;;;9.32;100.00
48352;BME280;34163;49.314;6.752;2023-08-06T14:49:28;99240.19;;;9.46;100.00
48352;BME280;34163;49.314;6.752;2023-08-06T14:51:53;99245.25;;;9.70;100.00
48352;BME280;34163;49.314;6.752;2023-08-06T14:54:18;99252.50;;;9.66;100.00
48352;BME280;34163;49.314;6.752;2023-08-06T14:56:43;99258.34;;;9.35;100.00
48352;BME280;34163;49.314;6.752;2023-08-06T14:59:12;99254.72;;;9.56;100.00
48352;BME280;34163;49.314;6.752;2023-08-06T15:01:37;99260.41;;;9.28;100.00
48352;BME280;34163;49.314;6.752;2023-08-06T15:04:02;99262.63;;;9.75;100.00
48352;BME280;34163;49.314;6.752;2023-08-06T15:06:28;99261.06;;;9.52;100.00
48352;BME280;34163;49.314;6.752;2023-08-06T15:08:53;99252.19;;;12.70;100.00
48352;BME280;34163;49.314;6.752;2023-08-06T15:11:23;99266.22;;;10.28;100.00
48352;BME280;34163;49.314;6.752;2023-08-06T15:13:48;99286.72;;;9.88;100.00
48352;BME280;34163;49.314;6.752;2023-08-06T15:16:13;99283.16;;;9.70;100.00
48352;BME280;34163;49.314;6.752;2023-08-06T15:18:38;99276.84;;;9.54;100.00
48352;BME280;34163;49.314;6.752;2023-08-06T15:21:03;99288.00;;;9.60;100.00
48352;BME280;34163;49.314;6.752;2023-08-06T15:23:29;99288.66;;;9.66;100.00
48352;BME280;34163;49.314;6.752;2023-08-06T15:25:54;99299.47;;;9.80;100.00
48352;BME280;34163;49.314;6.752;2023-08-06T15:28:20;99293.69;;;9.53;100.00
48352;BME280;34163;49.314;6.752;2023-08-06T15:30:49;99298.03;;;9.54;100.00
48352;BME280;34163;49.314;6.752;2023-08-06T15:33:15;99302.31;;;9.37;100.00
48352;BME280;34163;49.314;6.752;2023-08-06T15:35:40;99302.75;;;9.47;100.00
48352;BME280;34163;49.314;6.752;2023-08-06T15:38:05;99298.31;;;9.67;100.00
48352;BME280;34163;49.314;6.752;2023-08-06T15:40:31;99310.03;;;9.80;100.00
48352;BME280;34163;49.314;6.752;2023-08-06T15:42:56;99310.66;;;9.47;100.00
48352;BME280;34163;49.314;6.752;2023-08-06T15:45:21;99310.75;;;9.45;100.00
48352;BME280;34163;49.314;6.752;2023-08-06T15:47:46;99308.44;;;9.38;100.00
48352;BME280;34163;49.314;6.752;2023-08-06T15:50:12;99300.84;;;9.30;100.00
48352;BME280;34163;49.314;6.752;2023-08-06T15:52:37;99300.66;;;9.54;100.00
48352;BME280;34163;49.314;6.752;2023-08-06T15:55:02;99323.47;;;9.56;100.00
48352;BME280;34163;49.314;6.752;2023-08-06T15:57:31;99317.47;;;9.53;100.00
48352;BME280;34163;49.314;6.752;2023-08-06T15:59:56;99319.38;;;9.49;100.00
48352;BME280;34163;49.314;6.752;2023-08-06T16:02:21;99330.19;;;9.44;100.00
48352;BME280;34163;49.314;6.752;2023-08-06T16:04:46;99334.16;;;9.34;100.00
48352;BME280;34163;49.314;6.752;2023-08-06T16:07:12;99353.84;;;9.67;100.00
48352;BME280;34163;49.314;6.752;2023-08-06T16:09:37;99347.50;;;9.52;100.00
48352;BME280;34163;49.314;6.752;2023-08-06T16:12:02;99342.06;;;9.55;100.00
48352;BME280;34163;49.314;6.752;2023-08-06T16:14:28;99345.75;;;9.51;100.00
48352;BME280;34163;49.314;6.752;2023-08-06T16:16:54;99342.63;;;9.61;100.00
48352;BME280;34163;49.314;6.752;2023-08-06T16:19:19;99347.06;;;9.61;100.00
48352;BME280;34163;49.314;6.752;2023-08-06T16:21:44;99346.56;;;9.53;100.00
48352;BME280;34163;49.314;6.752;2023-08-06T16:24:10;99345.31;;;9.41;100.00
48352;BME280;34163;49.314;6.752;2023-08-06T16:26:35;99349.75;;;9.40;100.00
48352;BME280;34163;49.314;6.752;2023-08-06T16:29:01;99357.94;;;9.74;100.00
48352;BME280;34163;49.314;6.752;2023-08-06T16:31:26;99348.63;;;9.46;100.00
48352;BME280;34163;49.314;6.752;2023-08-06T16:33:51;99354.22;;;9.40;100.00
48352;BME280;34163;49.314;6.752;2023-08-06T16:36:17;99354.81;;;9.85;100.00
48352;BME280;34163;49.314;6.752;2023-08-06T16:38:42;99352.13;;;9.47;100.00
48352;BME280;34163;49.314;6.752;2023-08-06T16:41:07;99353.34;;;9.58;100.00
48352;BME280;34163;49.314;6.752;2023-08-06T16:43:32;99351.19;;;9.48;100.00
48352;BME280;34163;49.314;6.752;2023-08-06T16:45:58;99349.91;;;9.37;100.00
48352;BME280;34163;49.314;6.752;2023-08-06T16:48:23;99348.19;;;9.55;100.00
48352;BME280;34163;49.314;6.752;2023-08-06T16:50:55;99357.16;;;9.53;100.00
48352;BME280;34163;49.314;6.752;2023-08-06T16:56:10;99353.41;;;9.38;100.00
48352;BME280;34163;49.314;6.752;2023-08-06T16:58:35;99367.53;;;9.57;100.00
48352;BME280;34163;49.314;6.752;2023-08-06T17:01:01;99360.78;;;9.50;100.00
48352;BME280;34163;49.314;6.752;2023-08-06T17:03:30;99371.72;;;9.61;100.00
48352;BME280;34163;49.314;6.752;2023-08-06T17:05:55;99370.66;;;9.47;100.00
48352;BME280;34163;49.314;6.752;2023-08-06T17:08:20;99369.16;;;9.60;100.00
48352;BME280;34163;49.314;6.752;2023-08-06T17:10:46;99375.50;;;9.37;100.00
48352;BME280;34163;49.314;6.752;2023-08-06T17:13:11;99381.16;;;9.48;100.00
48352;BME280;34163;49.314;6.752;2023-08-06T17:15:36;99373.91;;;9.33;100.00
48352;BME280;34163;49.314;6.752;2023-08-06T17:18:02;99383.94;;;9.45;100.00
48352;BME280;34163;49.314;6.752;2023-08-06T17:20:27;99386.31;;;9.51;100.00
48352;BME280;34163;49.314;6.752;2023-08-06T17:22:52;99399.41;;;9.54;100.00
48352;BME280;34163;49.314;6.752;2023-08-06T17:25:17;99390.44;;;9.57;100.00
48352;BME280;34163;49.314;6.752;2023-08-06T17:27:45;99412.09;;;9.46;100.00
48352;BME280;34163;49.314;6.752;2023-08-06T17:30:11;99393.53;;;9.67;100.00
48352;BME280;34163;49.314;6.752;2023-08-06T17:32:37;99397.41;;;9.59;100.00
48352;BME280;34163;49.314;6.752;2023-08-06T17:35:04;99407.03;;;9.60;100.00
48352;BME280;34163;49.314;6.752;2023-08-06T17:37:30;99423.97;;;9.77;100.00
48352;BME280;34163;49.314;6.752;2023-08-06T17:39:55;99413.84;;;9.66;100.00
48352;BME280;34163;49.314;6.752;2023-08-06T17:42:21;99413.13;;;9.62;100.00
48352;BME280;34163;49.314;6.752;2023-08-06T17:44:46;99415.50;;;9.69;100.00
48352;BME280;34163;49.314;6.752;2023-08-06T17:47:12;99414.44;;;9.73;100.00
48352;BME280;34163;49.314;6.752;2023-08-06T17:49:37;99432.31;;;9.68;100.00
48352;BME280;34163;49.314;6.752;2023-08-06T17:52:06;99432.78;;;9.57;100.00
48352;BME280;34163;49.314;6.752;2023-08-06T17:54:31;99434.97;;;9.47;100.00
48352;BME280;34163;49.314;6.752;2023-08-06T17:56:56;99438.13;;;9.35;100.00
48352;BME280;34163;49.314;6.752;2023-08-06T17:59:24;99442.66;;;9.33;100.00
48352;BME280;34163;49.314;6.752;2023-08-06T18:01:49;99449.28;;;9.43;100.00
48352;BME280;34163;49.314;6.752;2023-08-06T18:04:15;99454.00;;;9.55;100.00
48352;BME280;34163;49.314;6.752;2023-08-06T18:06:40;99460.09;;;9.37;100.00
48352;BME280;34163;49.314;6.752;2023-08-06T18:09:05;99471.78;;;9.52;100.00
48352;BME280;34163;49.314;6.752;2023-08-06T18:11:30;99464.50;;;9.36;100.00
48352;BME280;34163;49.314;6.752;2023-08-06T18:13:58;99476.56;;;9.43;100.00
48352;BME280;34163;49.314;6.752;2023-08-06T18:16:23;99475.72;;;9.43;100.00
48352;BME280;34163;49.314;6.752;2023-08-06T18:18:48;99477.16;;;9.50;100.00
48352;BME280;34163;49.314;6.752;2023-08-06T18:21:17;99479.59;;;9.55;100.00
48352;BME280;34163;49.314;6.752;2023-08-06T18:23:42;99480.50;;;9.74;100.00
48352;BME280;34163;49.314;6.752;2023-08-06T18:26:08;99473.47;;;9.54;100.00
48352;BME280;34163;49.314;6.752;2023-08-06T18:28:33;99478.63;;;9.57;100.00
48352;BME280;34163;49.314;6.752;2023-08-06T18:30:58;99485.41;;;9.42;100.00
48352;BME280;34163;49.314;6.752;2023-08-06T18:33:23;99482.91;;;9.60;100.00
48352;BME280;34163;49.314;6.752;2023-08-06T18:35:49;99481.22;;;9.78;100.00
48352;BME280;34163;49.314;6.752;2023-08-06T18:38:14;99479.66;;;9.53;100.00
48352;BME280;34163;49.314;6.752;2023-08-06T18:40:39;99476.75;;;9.59;100.00
48352;BME280;34163;49.314;6.752;2023-08-06T18:43:05;99483.28;;;9.51;100.00
48352;BME280;34163;49.314;6.752;2023-08-06T18:45:30;99482.31;;;9.53;100.00
48352;BME280;34163;49.314;6.752;2023-08-06T18:48:03;99479.13;;;9.45;100.00
48352;BME280;34163;49.314;6.752;2023-08-06T18:50:29;99482.31;;;9.74;100.00
48352;BME280;34163;49.314;6.752;2023-08-06T18:52:55;99486.75;;;9.53;100.00
48352;BME280;34163;49.314;6.752;2023-08-06T18:55:20;99487.66;;;9.52;100.00
48352;BME280;34163;49.314;6.752;2023-08-06T18:57:45;99488.00;;;9.64;100.00
48352;BME280;34163;49.314;6.752;2023-08-06T19:00:11;99489.47;;;9.51;100.00
48352;BME280;34163;49.314;6.752;2023-08-06T19:02:36;99483.75;;;9.60;100.00
48352;BME280;34163;49.314;6.752;2023-08-06T19:05:01;99494.19;;;9.63;100.00
48352;BME280;34163;49.314;6.752;2023-08-06T19:07:28;99493.88;;;9.51;100.00
48352;BME280;34163;49.314;6.752;2023-08-06T19:09:53;99494.75;;;9.51;100.00
48352;BME280;34163;49.314;6.752;2023-08-06T19:12:18;99495.53;;;9.53;100.00
48352;BME280;34163;49.314;6.752;2023-08-06T19:14:45;99505.47;;;9.48;100.00
48352;BME280;34163;49.314;6.752;2023-08-06T19:17:11;99507.03;;;9.52;100.00
48352;BME280;34163;49.314;6.752;2023-08-06T19:19:36;99501.22;;;9.44;100.00
48352;BME280;34163;49.314;6.752;2023-08-06T19:22:01;99499.91;;;9.54;100.00
48352;BME280;34163;49.314;6.752;2023-08-06T19:24:26;99496.31;;;9.55;100.00
48352;BME280;34163;49.314;6.752;2023-08-06T19:26:52;99493.03;;;9.50;100.00
48352;BME280;34163;49.314;6.752;2023-08-06T19:29:17;99503.72;;;9.68;100.00
48352;BME280;34163;49.314;6.752;2023-08-06T19:31:42;99496.50;;;9.51;100.00
48352;BME280;34163;49.314;6.752;2023-08-06T19:34:08;99497.97;;;9.58;100.00
48352;BME280;34163;49.314;6.752;2023-08-06T19:36:33;99503.47;;;9.53;100.00
48352;BME280;34163;49.314;6.752;2023-08-06T19:38:59;99508.75;;;9.53;100.00
48352;BME280;34163;49.314;6.752;2023-08-06T19:41:33;99504.44;;;9.51;100.00
48352;BME280;34163;49.314;6.752;2023-08-06T19:43:58;99505.34;;;9.51;100.00
48352;BME280;34163;49.314;6.752;2023-08-06T19:46:23;99509.16;;;9.64;100.00
48352;BME280;34163;49.314;6.752;2023-08-06T19:48:49;99518.81;;;9.66;100.00
48352;BME280;34163;49.314;6.752;2023-08-06T19:51:15;99508.38;;;9.62;100.00
48352;BME280;34163;49.314;6.752;2023-08-06T19:53:42;99517.47;;;9.76;100.00
48352;BME280;34163;49.314;6.752;2023-08-06T19:56:07;99518.00;;;9.84;100.00
48352;BME280;34163;49.314;6.752;2023-08-06T19:58:33;99516.16;;;9.86;100.00
48352;BME280;34163;49.314;6.752;2023-08-06T20:00:58;99519.09;;;9.59;100.00
48352;BME280;34163;49.314;6.752;2023-08-06T20:03:24;99520.53;;;9.67;100.00
48352;BME280;34163;49.314;6.752;2023-08-06T20:05:50;99523.41;;;9.81;100.00
48352;BME280;34163;49.314;6.752;2023-08-06T20:08:15;99530.97;;;9.90;100.00
48352;BME280;34163;49.314;6.752;2023-08-06T20:10:44;99530.44;;;9.82;100.00
48352;BME280;34163;49.314;6.752;2023-08-06T20:13:11;99527.81;;;9.61;100.00
48352;BME280;34163;49.314;6.752;2023-08-06T20:15:37;99531.09;;;9.67;100.00
48352;BME280;34163;49.314;6.752;2023-08-06T20:18:02;99524.25;;;9.62;100.00
48352;BME280;34163;49.314;6.752;2023-08-06T20:20:27;99530.72;;;9.55;100.00
48352;BME280;34163;49.314;6.752;2023-08-06T20:22:53;99525.22;;;9.60;100.00
48352;BME280;34163;49.314;6.752;2023-08-06T20:25:18;99529.28;;;9.69;100.00
48352;BME280;34163;49.314;6.752;2023-08-06T20:27:43;99534.00;;;9.60;100.00
48352;BME280;34163;49.314;6.752;2023-08-06T20:30:08;99530.06;;;9.71;100.00
48352;BME280;34163;49.314;6.752;2023-08-06T20:32:34;99537.28;;;9.67;100.00
48352;BME280;34163;49.314;6.752;2023-08-06T20:35:02;99542.69;;;9.64;100.00
48352;BME280;34163;49.314;6.752;2023-08-06T20:37:27;99524.03;;;12.58;100.00
48352;BME280;34163;49.314;6.752;2023-08-06T20:39:52;99529.88;;;10.35;100.00
48352;BME280;34163;49.314;6.752;2023-08-06T20:42:18;99545.16;;;10.08;100.00
48352;BME280;34163;49.314;6.752;2023-08-06T20:44:43;99542.75;;;9.83;100.00
48352;BME280;34163;49.314;6.752;2023-08-06T20:47:10;99543.03;;;9.77;100.00
48352;BME280;34163;49.314;6.752;2023-08-06T20:49:35;99539.50;;;9.76;100.00
48352;BME280;34163;49.314;6.752;2023-08-06T20:52:00;99546.59;;;9.76;100.00
48352;BME280;34163;49.314;6.752;2023-08-06T20:54:29;99552.88;;;9.73;100.00
48352;BME280;34163;49.314;6.752;2023-08-06T20:56:54;99548.97;;;9.61;100.00
48352;BME280;34163;49.314;6.752;2023-08-06T20:59:19;99552.13;;;9.70;100.00
48352;BME280;34163;49.314;6.752;2023-08-06T21:01:45;99562.13;;;9.63;100.00
48352;BME280;34163;49.314;6.752;2023-08-06T21:04:10;99567.41;;;9.63;100.00
48352;BME280;34163;49.314;6.752;2023-08-06T21:06:38;99564.06;;;9.80;100.00
48352;BME280;34163;49.314;6.752;2023-08-06T21:09:03;99572.31;;;9.72;100.00
48352;BME280;34163;49.314;6.752;2023-08-06T21:11:28;99572.31;;;9.93;100.00
48352;BME280;34163;49.314;6.752;2023-08-06T21:13:53;99572.38;;;9.71;100.00
48352;BME280;34163;49.314;6.752;2023-08-06T21:16:19;99574.50;;;9.62;100.00
48352;BME280;34163;49.314;6.752;2023-08-06T21:18:44;99582.97;;;9.71;100.00
48352;BME280;34163;49.314;6.752;2023-08-06T21:21:09;99589.56;;;9.60;100.00
48352;BME280;34163;49.314;6.752;2023-08-06T21:23:35;99592.91;;;9.66;100.00
48352;BME280;34163;49.314;6.752;2023-08-06T21:26:04;99592.06;;;9.63;100.00
48352;BME280;34163;49.314;6.752;2023-08-06T21:28:30;99595.13;;;9.54;100.00
48352;BME280;34163;49.314;6.752;2023-08-06T21:30:56;99587.19;;;9.54;100.00
48352;BME280;34163;49.314;6.752;2023-08-06T21:33:25;99593.34;;;9.75;100.00
48352;BME280;34163;49.314;6.752;2023-08-06T21:35:51;99597.44;;;9.62;100.00
48352;BME280;34163;49.314;6.752;2023-08-06T21:38:17;99604.69;;;9.57;100.00
48352;BME280;34163;49.314;6.752;2023-08-06T21:40:42;99609.09;;;9.58;100.00
48352;BME280;34163;49.314;6.752;2023-08-06T21:43:07;99605.66;;;9.56;100.00
48352;BME280;34163;49.314;6.752;2023-08-06T21:45:35;99603.97;;;9.53;100.00
48352;BME280;34163;49.314;6.752;2023-08-06T21:48:01;99607.41;;;9.55;100.00
48352;BME280;34163;49.314;6.752;2023-08-06T21:50:26;99606.50;;;9.56;100.00
48352;BME280;34163;49.314;6.752;2023-08-06T21:52:51;99605.75;;;9.75;100.00
48352;BME280;34163;49.314;6.752;2023-08-06T21:55:17;99609.75;;;9.63;100.00
48352;BME280;34163;49.314;6.752;2023-08-06T21:57:42;99613.19;;;9.65;100.00
48352;BME280;34163;49.314;6.752;2023-08-06T22:00:08;99606.69;;;9.52;100.00
48352;BME280;34163;49.314;6.752;2023-08-06T22:02:33;99610.88;;;9.57;100.00
48352;BME280;34163;49.314;6.752;2023-08-06T22:04:59;99609.09;;;9.58;100.00
48352;BME280;34163;49.314;6.752;2023-08-06T22:07:24;99612.56;;;9.58;100.00
48352;BME280;34163;49.314;6.752;2023-08-06T22:09:49;99615.50;;;9.73;100.00
48352;BME280;34163;49.314;6.752;2023-08-06T22:12:14;99603.72;;;9.59;100.00
48352;BME280;34163;49.314;6.752;2023-08-06T22:14:40;99599.03;;;9.66;100.00
48352;BME280;34163;49.314;6.752;2023-08-06T22:17:12;99605.66;;;9.56;100.00
48352;BME280;34163;49.314;6.752;2023-08-06T22:19:43;99610.34;;;9.70;100.00
48352;BME280;34163;49.314;6.752;2023-08-06T22:22:08;99601.69;;;9.66;100.00
48352;BME280;34163;49.314;6.752;2023-08-06T22:24:34;99612.69;;;9.55;100.00
48352;BME280;34163;49.314;6.752;2023-08-06T22:26:59;99600.75;;;9.67;100.00
48352;BME280;34163;49.314;6.752;2023-08-06T22:29:24;99600.22;;;9.59;100.00
48352;BME280;34163;49.314;6.752;2023-08-06T22:31:49;99605.44;;;9.60;100.00
48352;BME280;34163;49.314;6.752;2023-08-06T22:34:15;99610.34;;;9.70;100.00
48352;BME280;34163;49.314;6.752;2023-08-06T22:36:40;99604.50;;;9.61;100.00
48352;BME280;34163;49.314;6.752;2023-08-06T22:39:05;99612.50;;;9.60;100.00
48352;BME280;34163;49.314;6.752;2023-08-06T22:41:33;99617.09;;;9.77;100.00
48352;BME280;34163;49.314;6.752;2023-08-06T22:44:08;99614.47;;;9.77;100.00
48352;BME280;34163;49.314;6.752;2023-08-06T22:46:33;99613.94;;;9.69;100.00
48352;BME280;34163;49.314;6.752;2023-08-06T22:48:58;99612.78;;;9.74;100.00
48352;BME280;34163;49.314;6.752;2023-08-06T22:51:23;99613.53;;;9.78;100.00
48352;BME280;34163;49.314;6.752;2023-08-06T22:53:52;99608.38;;;9.75;100.00
48352;BME280;34163;49.314;6.752;2023-08-06T22:56:17;99604.41;;;9.85;100.00
48352;BME280;34163;49.314;6.752;2023-08-06T22:58:42;99609.97;;;9.79;100.00
48352;BME280;34163;49.314;6.752;2023-08-06T23:01:08;99615.38;;;9.76;100.00
48352;BME280;34163;49.314;6.752;2023-08-06T23:03:33;99609.09;;;9.78;100.00
48352;BME280;34163;49.314;6.752;2023-08-06T23:05:59;99614.19;;;9.62;100.00
48352;BME280;34163;49.314;6.752;2023-08-06T23:08:24;99617.38;;;9.71;100.00
48352;BME280;34163;49.314;6.752;2023-08-06T23:10:49;99611.94;;;9.74;100.00
48352;BME280;34163;49.314;6.752;2023-08-06T23:13:15;99614.66;;;9.72;100.00
48352;BME280;34163;49.314;6.752;2023-08-06T23:15:40;99616.16;;;9.78;100.00
48352;BME280;34163;49.314;6.752;2023-08-06T23:18:07;99625.25;;;9.72;100.00
48352;BME280;34163;49.314;6.752;2023-08-06T23:20:32;99620.13;;;9.68;100.00
48352;BME280;34163;49.314;6.752;2023-08-06T23:23:00;99617.84;;;9.80;100.00
48352;BME280;34163;49.314;6.752;2023-08-06T23:25:25;99620.13;;;9.68;100.00
48352;BME280;34163;49.314;6.752;2023-08-06T23:27:50;99628.41;;;9.80;100.00
48352;BME280;34163;49.314;6.752;2023-08-06T23:30:23;99626.97;;;9.73;100.00
48352;BME280;34163;49.314;6.752;2023-08-06T23:32:48;99628.41;;;9.80;100.00
48352;BME280;34163;49.314;6.752;2023-08-06T23:35:16;99630.16;;;9.81;100.00
48352;BME280;34163;49.314;6.752;2023-08-06T23:37:47;99630.94;;;9.84;100.00
